LiveATC.Net - Listen to live air traffic control over the Internet!

ICAO: KSDM  IATA: SDM   Airport: Brown Field Municipal Airport
City: San Diego   State/Province: California
Country: United States   Continent: North America
KSDM METAR Weather: KSDM 172153Z 26010KT 10SM SCT022 BKN029 BKN044 14/09 A3002 RMK AO2 SLP164 T01440094
KSDM Flight Activity (FlightAware)
KSDM Airport Info   (AirNav) (iFlightPlanner)
KSDM VFR Sectional Chart   (iFlightPlanner) 
KSDM IFR Low Chart   (iFlightPlanner) 
KSDM Ground/Tower
Feed Status: UP   Listeners: 0
Listen right in your browser - requires Flash (in browser, requires Flash)
Click here to listen with your own player (launches your MP3 player)
KSDM Ground/Tower Audio Archives
Brown Ground124.400
Brown Tower128.250
Brown Tower225.400


Unauthorized use prohibited. See Terms of Service

Find LiveATC Audio Streams

Airport/ARTCC Code

Frequency Search
(e.g., 124.400, 128.75)
Site-wide search

Browse LiveATC Feeds
LiveATC Coverage Map
Top 50 LiveATC Feeds
Bad Weather Areas

Offer a LiveATC Feed
Press Inquiries

LiveATC on iPhone
LiveATC on Android

Windows Phone
Windows 8/10

LiveATC Mobile
(Mobile browser)

ATC Audio Archives
Interesting Recordings

LiveATC Forums

Home Page
Make a Donation
Terms of Use
Privacy Policy

Canadian Air Freqs


FAA Airport Status
Nat'l Airspace Status
Arrival Demand Charts

Server Software By: